createdAt,value
2023-04-20T00:00:11.186Z,7.15
2023-04-20T00:02:18.436Z,7.47
2023-04-20T00:04:22.348Z,8.93
2023-04-20T00:06:29.502Z,8.18
2023-04-20T00:08:32.809Z,6.13
2023-04-20T00:10:35.877Z,6.75
2023-04-20T00:12:38.900Z,6.57
2023-04-20T00:14:41.930Z,8.10
2023-04-20T00:16:44.990Z,8.60
2023-04-20T00:18:49.881Z,7.55
2023-04-20T00:20:53.013Z,7.75
2023-04-20T00:22:56.357Z,6.30
2023-04-20T00:24:59.389Z,11.65
2023-04-20T00:27:02.656Z,7.35
2023-04-20T00:29:05.869Z,7.90
2023-04-20T00:31:09.045Z,9.38
2023-04-20T00:33:12.111Z,7.65
2023-04-20T00:35:16.542Z,6.90
2023-04-20T00:37:20.806Z,8.50
2023-04-20T00:39:24.259Z,8.98
2023-04-20T00:41:27.553Z,11.45
2023-04-20T00:43:30.714Z,8.43
2023-04-20T00:45:33.824Z,7.15
2023-04-20T00:47:36.957Z,7.30
2023-04-20T00:49:40.128Z,11.60
2023-04-20T00:51:44.530Z,9.73
2023-04-20T00:53:47.615Z,9.10
2023-04-20T00:55:51.973Z,8.15
2023-04-20T00:57:55.138Z,11.75
2023-04-20T00:59:58.267Z,7.63
2023-04-20T01:02:01.477Z,9.02
2023-04-20T01:04:04.630Z,9.65
2023-04-20T01:06:08.210Z,9.80
2023-04-20T01:08:12.675Z,10.48
2023-04-20T01:10:15.754Z,9.55
2023-04-20T01:12:18.850Z,9.80
2023-04-20T01:14:21.991Z,9.18
2023-04-20T01:16:26.607Z,7.40
2023-04-20T01:18:29.854Z,8.80
2023-04-20T01:20:33.815Z,7.70
2023-04-20T01:22:47.636Z,8.27
2023-04-20T01:24:50.668Z,8.52
2023-04-20T01:26:53.625Z,8.38
2023-04-20T01:28:56.755Z,8.75
2023-04-20T01:30:59.911Z,8.63
2023-04-20T01:33:02.959Z,11.25
2023-04-20T01:35:07.408Z,7.90
2023-04-20T01:37:10.540Z,9.23
2023-04-20T01:39:18.401Z,9.13
2023-04-20T01:41:21.738Z,8.45
2023-04-20T01:43:25.476Z,9.63
2023-04-20T01:45:28.580Z,8.80
2023-04-20T01:47:32.445Z,11.85
2023-04-20T01:49:36.167Z,9.88
2023-04-20T01:51:39.332Z,9.40
2023-04-20T01:53:42.373Z,8.25
2023-04-20T01:55:46.824Z,9.90
2023-04-20T01:57:50.210Z,10.60
2023-04-20T01:59:53.576Z,10.15
2023-04-20T02:01:56.773Z,8.15
2023-04-20T02:04:00.751Z,8.35
2023-04-20T02:06:03.929Z,9.15
2023-04-20T02:08:07.105Z,9.68
2023-04-20T02:10:10.990Z,7.85
2023-04-20T02:12:15.461Z,10.43
2023-04-20T02:14:18.511Z,8.95
2023-04-20T02:16:21.744Z,8.50
2023-04-20T02:18:25.502Z,8.93
2023-04-20T02:20:28.566Z,8.02
2023-04-20T02:22:34.902Z,10.48
2023-04-20T02:24:38.011Z,7.72
2023-04-20T02:26:41.055Z,9.82
2023-04-20T02:28:45.452Z,7.72
2023-04-20T02:30:48.597Z,7.10
2023-04-20T02:32:51.957Z,7.03
2023-04-20T02:34:55.074Z,8.52
2023-04-20T02:36:58.111Z,8.07
2023-04-20T02:39:01.938Z,7.53
2023-04-20T02:41:05.101Z,7.68
2023-04-20T02:43:08.111Z,7.57
2023-04-20T02:45:13.520Z,7.55
2023-04-20T02:47:19.381Z,9.60
2023-04-20T02:49:22.495Z,11.02
2023-04-20T02:51:25.612Z,10.10
2023-04-20T02:53:30.035Z,7.20
2023-04-20T02:55:48.197Z,9.57
2023-04-20T02:58:06.041Z,7.20
2023-04-20T03:00:42.463Z,10.20
2023-04-20T03:02:46.969Z,7.70
2023-04-20T03:04:50.471Z,7.60
2023-04-20T03:06:57.004Z,8.13
2023-04-20T03:09:04.361Z,6.88
2023-04-20T03:11:31.070Z,9.25
2023-04-20T03:13:34.343Z,8.82
2023-04-20T03:15:38.554Z,7.22
2023-04-20T03:17:57.277Z,8.73
2023-04-20T03:20:01.248Z,9.40
2023-04-20T03:22:05.037Z,8.52
2023-04-20T03:24:09.406Z,10.55
2023-04-20T03:26:13.506Z,8.00
2023-04-20T03:28:36.821Z,8.98
2023-04-20T03:30:39.967Z,9.70
2023-04-20T03:32:49.826Z,8.43
2023-04-20T03:34:54.278Z,10.88
2023-04-20T03:36:57.391Z,9.80
2023-04-20T03:39:00.453Z,9.63
2023-04-20T03:41:04.804Z,23.30
2023-04-20T03:43:07.885Z,15.30
2023-04-20T03:45:11.659Z,11.40
2023-04-20T03:47:14.722Z,14.57
2023-04-20T03:49:18.205Z,11.73
2023-04-20T03:51:22.849Z,10.57
2023-04-20T03:53:26.068Z,14.27
2023-04-20T03:55:29.120Z,9.80
2023-04-20T03:57:38.521Z,10.00
2023-04-20T03:59:42.678Z,8.63
2023-04-20T04:01:48.999Z,10.30
2023-04-20T04:03:53.198Z,9.82
2023-04-20T04:05:56.402Z,9.32
2023-04-20T04:08:00.845Z,9.00
2023-04-20T04:10:05.793Z,10.88
2023-04-20T04:12:09.845Z,9.75
2023-04-20T04:14:14.150Z,11.98
2023-04-20T04:16:17.719Z,11.63
2023-04-20T04:18:21.756Z,11.57
2023-04-20T04:20:25.853Z,11.18
2023-04-20T04:22:30.566Z,15.20
2023-04-20T04:24:54.537Z,11.88
2023-04-20T04:26:58.560Z,10.65
2023-04-20T04:29:04.906Z,10.65
2023-04-20T04:31:09.884Z,10.68
2023-04-20T04:33:14.705Z,9.90
2023-04-20T04:35:20.661Z,11.20
2023-04-20T04:37:24.040Z,11.35
2023-04-20T04:39:31.189Z,11.55
2023-04-20T04:41:44.836Z,9.60
2023-04-20T04:44:05.935Z,12.45
2023-04-20T04:46:10.844Z,9.77
2023-04-20T04:48:14.612Z,12.63
2023-04-20T04:50:17.739Z,11.02
2023-04-20T04:52:21.867Z,14.63
2023-04-20T04:54:25.037Z,11.57
2023-04-20T04:56:28.586Z,13.70
2023-04-20T04:58:33.046Z,10.63
2023-04-20T05:00:36.104Z,14.15
2023-04-20T05:02:39.524Z,12.75
2023-04-20T05:04:43.016Z,12.70
2023-04-20T05:06:46.370Z,13.15
2023-04-20T05:08:49.482Z,12.00
2023-04-20T05:10:52.561Z,15.77
2023-04-20T05:12:55.707Z,11.02
2023-04-20T05:15:00.437Z,12.57
2023-04-20T05:17:04.096Z,11.02
2023-04-20T05:19:07.159Z,10.95
2023-04-20T05:21:10.210Z,11.20
2023-04-20T05:23:13.373Z,11.75
2023-04-20T05:25:16.427Z,11.63
2023-04-20T05:27:19.474Z,10.90
2023-04-20T05:29:22.553Z,12.85
2023-04-20T05:31:27.132Z,10.85
2023-04-20T05:33:30.544Z,10.15
2023-04-20T05:35:34.766Z,10.52
2023-04-20T05:37:37.799Z,11.52
2023-04-20T05:39:40.854Z,13.23
2023-04-20T05:41:43.919Z,12.50
2023-04-20T05:43:46.986Z,10.18
2023-04-20T05:45:50.200Z,10.93
2023-04-20T05:47:55.558Z,10.73
2023-04-20T05:50:01.292Z,10.82
2023-04-20T05:52:04.515Z,13.43
2023-04-20T05:54:07.629Z,10.60
2023-04-20T05:56:10.783Z,11.15
2023-04-20T05:58:13.882Z,12.70
2023-04-20T06:00:17.770Z,13.70
2023-04-20T06:02:21.113Z,10.57
2023-04-20T06:04:25.955Z,12.63
2023-04-20T06:06:29.358Z,9.67
2023-04-20T06:08:32.488Z,10.30
2023-04-20T06:10:35.611Z,12.47
2023-04-20T06:12:38.650Z,10.47
2023-04-20T06:14:41.712Z,10.50
2023-04-20T06:16:45.108Z,10.23
2023-04-20T06:18:48.108Z,10.13
2023-04-20T06:20:52.563Z,9.93
2023-04-20T06:22:55.677Z,10.77
2023-04-20T06:24:59.188Z,10.30
2023-04-20T06:27:02.684Z,9.63
2023-04-20T06:29:06.382Z,9.50
2023-04-20T06:31:09.511Z,10.53
2023-04-20T06:33:16.965Z,9.53
2023-04-20T06:35:20.158Z,9.90
2023-04-20T06:37:24.683Z,10.87
2023-04-20T06:39:27.712Z,9.97
2023-04-20T06:41:30.822Z,9.73
2023-04-20T06:43:42.290Z,9.67
2023-04-20T06:45:45.878Z,9.97
2023-04-20T06:47:49.017Z,13.47
2023-04-20T06:49:52.134Z,9.67
2023-04-20T06:51:55.424Z,11.50
2023-04-20T06:54:00.174Z,9.90
2023-04-20T06:56:03.415Z,9.83
2023-04-20T06:58:06.691Z,10.50
2023-04-20T07:00:11.956Z,9.97
2023-04-20T07:02:15.174Z,10.40
2023-04-20T07:04:18.435Z,8.97
2023-04-20T07:06:21.605Z,10.30
2023-04-20T07:08:24.961Z,9.17
2023-04-20T07:10:29.387Z,9.10
2023-04-20T07:12:32.533Z,9.77
2023-04-20T07:14:35.647Z,11.17
2023-04-20T07:16:38.866Z,10.07
2023-04-20T07:18:42.598Z,10.70
2023-04-20T07:20:45.789Z,11.10
2023-04-20T07:22:48.891Z,11.20
2023-04-20T07:24:52.540Z,10.70
2023-04-20T07:26:57.245Z,9.57
2023-04-20T07:29:00.370Z,10.33
2023-04-20T07:31:03.466Z,8.73
2023-04-20T07:33:07.417Z,9.97
2023-04-20T07:35:11.485Z,9.57
2023-04-20T07:37:14.490Z,10.70
2023-04-20T07:39:17.691Z,10.03
2023-04-20T07:41:23.165Z,9.27
2023-04-20T07:43:27.634Z,10.43
2023-04-20T07:45:31.058Z,9.83
2023-04-20T07:47:34.993Z,10.10
2023-04-20T07:49:40.651Z,10.63
2023-04-20T07:51:43.722Z,9.97
2023-04-20T07:53:46.793Z,11.43
2023-04-20T07:55:50.941Z,10.27
2023-04-20T07:57:54.325Z,11.87
2023-04-20T07:59:58.803Z,11.73
2023-04-20T08:02:02.676Z,10.87
2023-04-20T08:04:06.744Z,9.83
2023-04-20T08:06:12.243Z,9.83
2023-04-20T08:08:15.397Z,10.97
2023-04-20T08:10:18.542Z,10.50
2023-04-20T08:12:21.640Z,10.23
2023-04-20T08:14:25.031Z,10.93
2023-04-20T08:16:29.607Z,10.30
2023-04-20T08:18:32.816Z,12.30
2023-04-20T08:20:35.934Z,13.63
2023-04-20T08:22:39.719Z,11.20
2023-04-20T08:24:42.793Z,10.53
2023-04-20T08:26:45.905Z,10.40
2023-04-20T08:28:49.087Z,12.03
2023-04-20T08:30:52.997Z,15.00
2023-04-20T08:32:57.482Z,10.73
2023-04-20T08:35:00.853Z,11.50
2023-04-20T08:37:03.988Z,9.40
2023-04-20T08:39:09.319Z,9.43
2023-04-20T08:41:13.528Z,11.33
2023-04-20T08:43:16.681Z,10.30
2023-04-20T08:45:19.858Z,10.23
2023-04-20T08:47:22.992Z,11.80
2023-04-20T08:49:29.502Z,10.37
2023-04-20T08:51:33.177Z,9.13
2023-04-20T08:53:36.318Z,11.07
2023-04-20T08:55:39.401Z,10.40
2023-04-20T08:57:42.647Z,10.53
2023-04-20T08:59:45.886Z,10.40
2023-04-20T09:01:49.064Z,9.50
2023-04-20T09:03:52.397Z,14.43
2023-04-20T09:05:56.947Z,10.20
2023-04-20T09:08:01.962Z,10.70
2023-04-20T09:10:05.960Z,11.63
2023-04-20T09:12:10.301Z,11.67
2023-04-20T09:14:14.800Z,12.47
2023-04-20T09:16:18.177Z,11.10
2023-04-20T09:18:21.422Z,10.67
2023-04-20T09:20:31.834Z,10.93
2023-04-20T09:22:37.379Z,13.10
2023-04-20T09:24:42.300Z,13.40
2023-04-20T09:26:45.409Z,10.70
2023-04-20T09:28:48.466Z,12.37
2023-04-20T09:30:51.922Z,11.20
2023-04-20T09:33:14.434Z,9.67
2023-04-20T09:35:24.364Z,10.50
2023-04-20T09:37:27.546Z,10.53
2023-04-20T09:39:35.104Z,9.53
2023-04-20T09:41:39.349Z,12.63
2023-04-20T09:43:43.467Z,12.87
2023-04-20T09:45:46.835Z,10.70
2023-04-20T09:47:51.144Z,10.50
2023-04-20T09:49:54.507Z,8.90
2023-04-20T09:51:58.198Z,9.80
2023-04-20T09:54:03.008Z,10.43
2023-04-20T09:56:07.924Z,9.73
2023-04-20T09:58:11.061Z,10.87
2023-04-20T10:00:15.391Z,10.20
2023-04-20T10:02:18.747Z,9.57
2023-04-20T10:04:22.010Z,10.33
2023-04-20T10:06:27.701Z,11.40
2023-04-20T10:08:41.444Z,10.00
2023-04-20T10:10:46.363Z,10.60
2023-04-20T10:12:52.060Z,9.67
2023-04-20T10:14:57.081Z,11.30
2023-04-20T10:17:01.690Z,9.60
2023-04-20T10:19:07.596Z,12.90
2023-04-20T10:21:13.586Z,9.63
2023-04-20T10:23:18.667Z,11.93
2023-04-20T10:25:23.999Z,9.43
2023-04-20T10:27:27.376Z,10.13
2023-04-20T10:29:33.168Z,9.67
2023-04-20T10:31:38.907Z,13.20
2023-04-20T10:33:52.530Z,10.00
2023-04-20T10:35:58.968Z,8.20
2023-04-20T10:38:02.172Z,16.63
2023-04-20T10:40:08.098Z,14.83
2023-04-20T10:42:11.386Z,9.90
2023-04-20T10:44:14.476Z,9.60
2023-04-20T10:46:20.238Z,13.50
2023-04-20T10:48:23.351Z,13.30
2023-04-20T10:50:27.787Z,15.77
2023-04-20T10:52:34.781Z,17.37
2023-04-20T10:54:38.826Z,12.67
2023-04-20T10:56:43.221Z,11.30
2023-04-20T10:58:46.301Z,12.20
2023-04-20T11:00:59.124Z,8.93
2023-04-20T11:03:03.822Z,8.63
2023-04-20T11:05:12.565Z,10.20
2023-04-20T11:07:15.919Z,9.43
2023-04-20T11:09:20.702Z,8.93
2023-04-20T11:11:27.450Z,9.47
2023-04-20T11:13:30.807Z,9.67
2023-04-20T11:15:34.375Z,9.13
2023-04-20T11:17:39.006Z,17.83
2023-04-20T11:19:43.471Z,9.43
2023-04-20T11:21:46.600Z,12.90
2023-04-20T11:23:50.049Z,9.90
2023-04-20T11:25:54.155Z,8.83
2023-04-20T11:28:07.437Z,10.83
2023-04-20T11:30:11.152Z,11.87
2023-04-20T11:32:14.506Z,10.67
2023-04-20T11:34:18.683Z,11.70
2023-04-20T11:36:24.141Z,10.67
2023-04-20T11:38:31.376Z,10.47
2023-04-20T11:40:34.465Z,9.57
2023-04-20T11:42:38.041Z,12.50
2023-04-20T11:44:41.326Z,10.43
2023-04-20T11:46:44.926Z,10.83
2023-04-20T11:48:49.030Z,9.80
2023-04-20T11:50:52.256Z,10.43
2023-04-20T11:52:56.967Z,8.23
2023-04-20T11:55:00.224Z,9.03
2023-04-20T11:57:04.446Z,12.20
2023-04-20T11:59:07.581Z,9.53
2023-04-20T12:01:10.735Z,10.30
2023-04-20T12:03:13.952Z,10.32
2023-04-20T12:05:17.184Z,9.53
2023-04-20T12:07:20.237Z,11.23
2023-04-20T12:09:24.765Z,9.73
2023-04-20T12:11:27.929Z,9.90
2023-04-20T12:13:31.435Z,10.40
2023-04-20T12:15:34.467Z,10.03
2023-04-20T12:17:37.643Z,9.93
2023-04-20T12:19:40.773Z,9.90
2023-04-20T12:21:43.863Z,8.40
2023-04-20T12:23:49.217Z,8.23
2023-04-20T12:25:53.909Z,8.33
2023-04-20T12:27:57.226Z,9.03
2023-04-20T12:30:00.300Z,12.73
2023-04-20T12:32:03.681Z,12.87
2023-04-20T12:34:06.868Z,9.90
2023-04-20T12:36:10.470Z,11.20
2023-04-20T12:38:14.643Z,8.03
2023-04-20T12:40:17.963Z,9.43
2023-04-20T12:42:22.440Z,9.80
2023-04-20T12:44:25.596Z,9.33
2023-04-20T12:46:28.813Z,9.03
2023-04-20T12:48:32.032Z,14.33
2023-04-20T12:50:35.121Z,9.20
2023-04-20T12:52:38.349Z,8.50
2023-04-20T12:54:43.855Z,7.93
2023-04-20T12:56:47.451Z,8.10
2023-04-20T12:58:51.932Z,8.53
2023-04-20T13:00:55.150Z,9.33
2023-04-20T13:02:58.572Z,10.33
2023-04-20T13:05:01.798Z,10.17
2023-04-20T13:07:04.904Z,9.40
2023-04-20T13:09:08.000Z,8.07
2023-04-20T13:11:15.409Z,9.13
2023-04-20T13:13:18.405Z,8.60
2023-04-20T13:15:37.588Z,8.73
2023-04-20T13:17:42.003Z,8.70
2023-04-20T13:19:48.062Z,10.53
2023-04-20T13:21:51.264Z,9.43
2023-04-20T13:23:56.222Z,9.23
2023-04-20T13:26:01.690Z,8.43
2023-04-20T13:28:05.621Z,8.40
2023-04-20T13:30:10.193Z,8.30
2023-04-20T13:32:14.838Z,9.23
2023-04-20T13:34:18.484Z,9.13
2023-04-20T13:36:22.242Z,9.80
2023-04-20T13:38:25.668Z,9.50
2023-04-20T13:40:29.008Z,11.43
2023-04-20T13:42:32.056Z,9.10
2023-04-20T13:44:35.494Z,9.33
2023-04-20T13:46:38.614Z,12.43
2023-04-20T13:48:43.222Z,10.97
2023-04-20T13:50:47.360Z,8.57
2023-04-20T13:52:50.908Z,9.20
2023-04-20T13:54:54.009Z,8.97
2023-04-20T13:56:57.847Z,9.70
2023-04-20T13:59:01.047Z,9.93
2023-04-20T14:01:08.754Z,10.00
2023-04-20T14:03:12.137Z,9.33
2023-04-20T14:05:16.995Z,9.23
2023-04-20T14:07:20.192Z,10.83
2023-04-20T14:09:23.278Z,10.23
2023-04-20T14:11:26.517Z,11.10
2023-04-20T14:13:29.720Z,10.20
2023-04-20T14:15:32.942Z,10.47
2023-04-20T14:17:36.326Z,9.87
2023-04-20T14:19:39.534Z,11.43
2023-04-20T14:21:46.649Z,9.53
2023-04-20T14:23:53.393Z,10.30
2023-04-20T14:25:57.852Z,9.77
2023-04-20T14:28:01.073Z,12.23
2023-04-20T14:30:04.823Z,9.27
2023-04-20T14:32:08.012Z,12.60
2023-04-20T14:34:12.987Z,10.00
2023-04-20T14:36:16.115Z,10.43
2023-04-20T14:38:20.572Z,10.23
2023-04-20T14:40:24.194Z,9.80
2023-04-20T14:42:27.301Z,9.90
2023-04-20T14:44:31.724Z,10.30
2023-04-20T14:46:34.936Z,9.87
2023-04-20T14:48:38.180Z,12.63
2023-04-20T14:50:41.348Z,10.87
2023-04-20T14:52:44.420Z,10.70
2023-04-20T14:54:48.883Z,9.50
2023-04-20T14:56:51.928Z,9.17
2023-04-20T14:58:55.755Z,9.70
2023-04-20T15:00:58.859Z,9.17
2023-04-20T15:03:02.012Z,9.03
2023-04-20T15:05:10.015Z,9.40
2023-04-20T15:07:13.782Z,9.13
2023-04-20T15:09:16.948Z,12.50
2023-04-20T15:11:21.407Z,9.20
2023-04-20T15:13:25.999Z,9.30
2023-04-20T15:15:34.673Z,11.00
2023-04-20T15:17:47.140Z,8.73
2023-04-20T15:19:50.310Z,9.60
2023-04-20T15:21:53.430Z,9.70
2023-04-20T15:23:56.497Z,11.53
2023-04-20T15:25:59.682Z,10.37
2023-04-20T15:28:04.179Z,9.93
2023-04-20T15:30:08.445Z,10.37
2023-04-20T15:32:11.734Z,10.03
2023-04-20T15:34:17.306Z,10.03
2023-04-20T15:36:21.377Z,9.50
2023-04-20T15:38:25.028Z,10.80
2023-04-20T15:40:28.244Z,10.70
2023-04-20T15:42:31.283Z,11.03
2023-04-20T15:44:35.760Z,10.63
2023-04-20T15:46:39.389Z,11.90
2023-04-20T15:48:43.320Z,10.10
2023-04-20T15:50:46.475Z,12.43
2023-04-20T15:52:50.780Z,9.80
2023-04-20T15:54:53.921Z,10.10
2023-04-20T15:56:57.073Z,9.90
2023-04-20T15:59:00.339Z,10.67
2023-04-20T16:01:05.138Z,10.10
2023-04-20T16:03:08.456Z,10.83
2023-04-20T16:05:11.648Z,12.00
2023-04-20T16:07:14.838Z,12.67
2023-04-20T16:09:18.565Z,10.60
2023-04-20T16:11:21.792Z,10.60
2023-04-20T16:13:26.092Z,12.03
2023-04-20T16:15:29.217Z,11.03
2023-04-20T16:17:33.800Z,13.83
2023-04-20T16:19:36.920Z,23.07
2023-04-20T16:21:40.122Z,14.17
2023-04-20T16:23:43.265Z,11.50
2023-04-20T16:25:47.420Z,11.70
2023-04-20T16:27:50.917Z,11.47
2023-04-20T16:29:54.074Z,10.10
2023-04-20T16:31:57.711Z,11.70
2023-04-20T16:34:02.470Z,11.10
2023-04-20T16:36:06.243Z,19.33
2023-04-20T16:38:10.721Z,11.70
2023-04-20T16:40:14.033Z,11.33
2023-04-20T16:42:17.164Z,12.20
2023-04-20T16:44:20.532Z,13.10
2023-04-20T16:46:23.912Z,13.80
2023-04-20T16:48:27.024Z,11.77
2023-04-20T16:50:32.197Z,12.40
2023-04-20T16:52:35.360Z,16.60
2023-04-20T16:54:38.470Z,14.63
2023-04-20T16:56:41.749Z,13.83
2023-04-20T16:58:44.856Z,17.20
2023-04-20T17:00:48.181Z,13.60
2023-04-20T17:02:51.881Z,14.03
2023-04-20T17:04:55.129Z,14.63
2023-04-20T17:06:59.595Z,13.33
2023-04-20T17:09:06.898Z,13.30
2023-04-20T17:11:10.184Z,13.60
2023-04-20T17:13:13.323Z,12.50
2023-04-20T17:15:16.462Z,13.47
2023-04-20T17:17:19.646Z,16.20
2023-04-20T17:19:23.448Z,16.83
2023-04-20T17:21:29.024Z,16.53
2023-04-20T17:23:34.531Z,15.73
2023-04-20T17:25:37.591Z,13.93
2023-04-20T17:27:40.740Z,13.03
2023-04-20T17:29:44.852Z,15.30
2023-04-20T17:31:48.123Z,14.50
2023-04-20T17:33:51.199Z,15.57
2023-04-20T17:35:55.223Z,16.17
2023-04-20T17:37:59.640Z,16.80
2023-04-20T17:40:05.012Z,15.27
2023-04-20T17:42:08.371Z,16.53
2023-04-20T17:44:12.291Z,17.43
2023-04-20T17:46:15.573Z,16.00
2023-04-20T17:48:18.767Z,16.97
2023-04-20T17:50:22.753Z,16.30
2023-04-20T17:52:25.915Z,16.85
2023-04-20T17:54:29.571Z,17.20
2023-04-20T17:56:34.048Z,16.90
2023-04-20T17:58:37.174Z,14.73
2023-04-20T18:00:40.342Z,15.00
2023-04-20T18:02:43.554Z,18.07
2023-04-20T18:04:47.003Z,16.00
2023-04-20T18:06:51.410Z,17.07
2023-04-20T18:08:56.342Z,17.17
2023-04-20T18:10:59.478Z,20.47
2023-04-20T18:13:03.901Z,46.50
2023-04-20T18:15:08.585Z,19.77
2023-04-20T18:17:11.894Z,14.90
2023-04-20T18:19:15.044Z,16.67
2023-04-20T18:21:18.202Z,17.53
2023-04-20T18:23:21.312Z,24.65
2023-04-20T18:25:24.557Z,20.40
2023-04-20T18:27:27.722Z,17.60
2023-04-20T18:29:35.188Z,18.43
2023-04-20T18:31:38.428Z,17.93
2023-04-20T18:33:41.544Z,15.23
2023-04-20T18:35:44.918Z,19.33
2023-04-20T18:37:48.059Z,18.10
2023-04-20T18:39:51.357Z,15.37
2023-04-20T18:41:54.725Z,18.13
2023-04-20T18:43:57.987Z,16.83
2023-04-20T18:46:02.639Z,18.83
2023-04-20T18:48:06.675Z,18.27
2023-04-20T18:50:10.532Z,18.48
2023-04-20T18:52:13.710Z,18.37
2023-04-20T18:54:17.022Z,17.77
2023-04-20T18:56:20.253Z,19.42
2023-04-20T18:58:23.439Z,18.70
2023-04-20T19:00:27.308Z,18.45
2023-04-20T19:02:31.928Z,20.20
2023-04-20T19:04:36.333Z,17.50
2023-04-20T19:06:39.443Z,18.93
2023-04-20T19:08:42.586Z,17.97
2023-04-20T19:10:45.702Z,17.77
2023-04-20T19:12:48.777Z,19.57
2023-04-20T19:14:51.878Z,18.13
2023-04-20T19:16:55.106Z,20.97
2023-04-20T19:18:59.909Z,18.35
2023-04-20T19:21:02.982Z,21.53
2023-04-20T19:23:06.130Z,21.03
2023-04-20T19:25:09.578Z,19.02
2023-04-20T19:27:13.623Z,18.70
2023-04-20T19:29:16.764Z,18.30
2023-04-20T19:31:19.961Z,19.15
2023-04-20T19:33:23.127Z,18.85
2023-04-20T19:35:27.632Z,18.77
2023-04-20T19:37:31.153Z,19.80
2023-04-20T19:39:34.915Z,19.90
2023-04-20T19:41:38.021Z,22.20
2023-04-20T19:43:41.221Z,22.90
2023-04-20T19:45:44.544Z,18.00
2023-04-20T19:47:47.891Z,19.23
2023-04-20T19:49:51.143Z,18.90
2023-04-20T19:51:56.100Z,19.58
2023-04-20T19:54:00.288Z,22.00
2023-04-20T19:56:05.601Z,22.40
2023-04-20T19:58:10.853Z,25.25
2023-04-20T20:00:14.671Z,24.43
2023-04-20T20:02:18.116Z,25.65
2023-04-20T20:04:21.885Z,24.27
2023-04-20T20:06:25.421Z,25.10
2023-04-20T20:08:30.046Z,30.03
2023-04-20T20:10:33.340Z,32.00
2023-04-20T20:12:36.828Z,30.63
2023-04-20T20:14:40.064Z,25.57
2023-04-20T20:16:43.205Z,28.10
2023-04-20T20:18:46.299Z,26.30
2023-04-20T20:20:51.244Z,24.77
2023-04-20T20:22:54.302Z,24.47
2023-04-20T20:24:58.963Z,22.20
2023-04-20T20:27:02.417Z,24.13
2023-04-20T20:29:05.550Z,24.03
2023-04-20T20:31:08.717Z,23.37
2023-04-20T20:33:12.123Z,23.83
2023-04-20T20:35:15.307Z,23.47
2023-04-20T20:37:18.508Z,22.63
2023-04-20T20:39:21.987Z,22.60
2023-04-20T20:41:26.446Z,25.10
2023-04-20T20:43:31.529Z,24.80
2023-04-20T20:45:34.770Z,21.70
2023-04-20T20:47:38.147Z,21.27
2023-04-20T20:49:41.297Z,25.70
2023-04-20T20:51:44.447Z,25.93
2023-04-20T20:53:48.141Z,25.13
2023-04-20T20:55:51.295Z,24.23
2023-04-20T20:57:55.789Z,22.70
2023-04-20T20:59:58.953Z,23.63
2023-04-20T21:02:03.437Z,24.87
2023-04-20T21:04:06.867Z,24.80
2023-04-20T21:06:09.986Z,24.20
2023-04-20T21:08:13.173Z,22.60
2023-04-20T21:10:16.669Z,23.20
2023-04-20T21:12:19.811Z,22.07
2023-04-20T21:14:24.695Z,23.83
2023-04-20T21:16:27.826Z,24.03
2023-04-20T21:18:30.944Z,24.77
2023-04-20T21:20:34.615Z,21.20
2023-04-20T21:22:37.705Z,23.43
2023-04-20T21:24:40.863Z,27.30
2023-04-20T21:26:43.953Z,30.50
2023-04-20T21:28:47.141Z,25.77
2023-04-20T21:30:51.557Z,22.40
2023-04-20T21:32:54.801Z,22.53
2023-04-20T21:34:57.885Z,22.57
2023-04-20T21:37:04.192Z,22.10
2023-04-20T21:39:07.256Z,22.73
2023-04-20T21:41:10.549Z,23.00
2023-04-20T21:43:13.600Z,21.83
2023-04-20T21:45:16.725Z,19.60
2023-04-20T21:47:21.275Z,23.80
2023-04-20T21:49:24.374Z,22.27
2023-04-20T21:51:27.730Z,20.42
2023-04-20T21:53:31.346Z,21.37
2023-04-20T21:55:34.357Z,20.53
2023-04-20T21:57:37.435Z,19.50
2023-04-20T21:59:40.461Z,20.80
2023-04-20T22:01:43.537Z,23.20
2023-04-20T22:03:48.384Z,20.70
2023-04-20T22:05:51.660Z,20.43
2023-04-20T22:07:54.834Z,22.17
2023-04-20T22:09:58.082Z,21.20
2023-04-20T22:12:01.930Z,22.77
2023-04-20T22:14:05.574Z,19.93
2023-04-20T22:16:08.778Z,22.58
2023-04-20T22:18:12.133Z,23.30
2023-04-20T22:20:19.061Z,21.80
2023-04-20T22:22:22.049Z,20.80
2023-04-20T22:24:25.121Z,23.83
2023-04-20T22:26:28.317Z,23.53
2023-04-20T22:28:31.392Z,20.07
2023-04-20T22:30:34.441Z,21.40
2023-04-20T22:32:37.906Z,21.23
2023-04-20T22:34:41.078Z,19.70
2023-04-20T22:36:46.030Z,20.52
2023-04-20T22:38:49.140Z,20.20
2023-04-20T22:40:53.145Z,19.73
2023-04-20T22:42:56.284Z,19.77
2023-04-20T22:44:59.280Z,18.30
2023-04-20T22:47:02.473Z,18.60
2023-04-20T22:49:05.512Z,20.13
2023-04-20T22:51:28.941Z,19.47
2023-04-20T22:53:34.016Z,25.07
2023-04-20T22:55:37.680Z,17.17
2023-04-20T22:57:40.749Z,18.50
2023-04-20T22:59:43.955Z,17.70
2023-04-20T23:01:47.119Z,15.27
2023-04-20T23:03:50.506Z,16.87
2023-04-20T23:05:57.309Z,16.47
2023-04-20T23:08:00.672Z,21.60
2023-04-20T23:10:06.064Z,21.55
2023-04-20T23:12:10.311Z,19.95
2023-04-20T23:14:14.046Z,19.45
2023-04-20T23:16:17.153Z,23.05
2023-04-20T23:18:20.268Z,19.88
2023-04-20T23:20:23.505Z,23.13
2023-04-20T23:22:26.748Z,23.47
2023-04-20T23:24:30.068Z,20.55
2023-04-20T23:26:34.750Z,19.15
2023-04-20T23:28:37.826Z,19.90
2023-04-20T23:30:40.917Z,18.08
2023-04-20T23:32:44.672Z,19.67
2023-04-20T23:34:47.940Z,20.00
2023-04-20T23:36:53.813Z,23.20
2023-04-20T23:38:56.930Z,24.43
2023-04-20T23:40:59.988Z,20.33
2023-04-20T23:43:04.443Z,22.33
2023-04-20T23:45:09.285Z,18.03
2023-04-20T23:47:12.308Z,23.52
2023-04-20T23:49:15.491Z,23.67
2023-04-20T23:51:18.835Z,51.70
2023-04-20T23:53:21.878Z,32.55
2023-04-20T23:55:24.946Z,68.95
2023-04-20T23:57:27.943Z,59.93
2023-04-20T23:59:32.420Z,32.03
